createdAt,value
2023-01-03T00:02:11.243Z,2.97
2023-01-03T00:04:38.476Z,3.58
2023-01-03T00:07:05.473Z,1.85
2023-01-03T00:09:32.166Z,2.05
2023-01-03T00:12:17.629Z,3.03
2023-01-03T00:14:44.875Z,2.65
2023-01-03T00:17:13.399Z,3.72
2023-01-03T00:19:44.666Z,1.80
2023-01-03T00:22:12.532Z,1.70
2023-01-03T00:24:39.424Z,2.50
2023-01-03T00:27:06.433Z,2.38
2023-01-03T00:29:33.118Z,1.98
2023-01-03T00:32:00.089Z,1.90
2023-01-03T00:34:26.948Z,3.55
2023-01-03T00:36:54.058Z,3.70
2023-01-03T00:39:21.745Z,2.05
2023-01-03T00:41:48.451Z,2.70
2023-01-03T00:44:16.152Z,1.80
2023-01-03T00:46:43.021Z,2.70
2023-01-03T00:49:10.458Z,4.28
2023-01-03T00:51:39.442Z,4.65
2023-01-03T00:54:07.309Z,3.72
2023-01-03T00:56:36.997Z,4.63
2023-01-03T00:59:04.367Z,2.63
2023-01-03T01:01:45.852Z,2.80
2023-01-03T01:04:26.460Z,2.30
2023-01-03T01:06:59.354Z,3.40
2023-01-03T01:09:28.589Z,3.33
2023-01-03T01:11:55.583Z,3.55
2023-01-03T01:14:25.036Z,4.93
2023-01-03T01:17:00.842Z,4.70
2023-01-03T01:19:39.790Z,6.30
2023-01-03T01:22:06.820Z,3.17
2023-01-03T01:24:33.583Z,3.50
2023-01-03T01:27:01.086Z,5.00
2023-01-03T01:29:27.976Z,2.80
2023-01-03T01:31:54.938Z,5.75
2023-01-03T01:34:21.842Z,3.58
2023-01-03T01:36:49.100Z,4.93
2023-01-03T01:39:18.841Z,3.03
2023-01-03T01:42:06.474Z,3.30
2023-01-03T01:44:49.887Z,5.38
2023-01-03T01:47:49.361Z,3.55
2023-01-03T01:50:51.843Z,2.90
2023-01-03T01:53:30.135Z,2.88
2023-01-03T01:56:18.083Z,3.75
2023-01-03T01:58:46.772Z,4.72
2023-01-03T02:01:15.468Z,5.72
2023-01-03T02:03:44.110Z,2.95
2023-01-03T02:06:13.129Z,5.60
2023-01-03T02:08:39.941Z,4.03
2023-01-03T02:11:51.995Z,3.92
2023-01-03T02:15:10.639Z,3.22
2023-01-03T02:17:55.839Z,3.22
2023-01-03T02:20:31.610Z,4.68
2023-01-03T02:23:17.332Z,3.75
2023-01-03T02:26:24.558Z,3.00
2023-01-03T02:29:14.622Z,5.32
2023-01-03T02:31:51.208Z,4.20
2023-01-03T02:34:35.364Z,3.10
2023-01-03T02:37:28.330Z,4.78
2023-01-03T02:40:33.153Z,8.45
2023-01-03T02:43:14.681Z,10.48
2023-01-03T02:45:58.966Z,14.18
2023-01-03T02:48:32.022Z,17.70
2023-01-03T02:51:02.017Z,20.85
2023-01-03T02:53:36.789Z,16.25
2023-01-03T02:56:08.180Z,17.75
2023-01-03T02:58:36.921Z,20.58
2023-01-03T03:01:06.879Z,17.75
2023-01-03T03:03:37.894Z,14.77
2023-01-03T03:06:36.637Z,12.52
2023-01-03T03:09:04.407Z,11.63
2023-01-03T03:11:53.432Z,9.73
2023-01-03T03:14:35.431Z,5.53
2023-01-03T03:17:06.676Z,6.07
2023-01-03T03:19:55.665Z,6.38
2023-01-03T03:23:06.483Z,6.45
2023-01-03T03:25:50.785Z,6.82
2023-01-03T03:31:24.382Z,3.30
2023-01-03T03:34:00.460Z,5.95
2023-01-03T03:36:57.696Z,5.57
2023-01-03T03:39:44.177Z,4.40
2023-01-03T03:42:59.307Z,2.47
2023-01-03T03:45:40.265Z,6.28
2023-01-03T03:48:22.100Z,1.92
2023-01-03T03:50:58.210Z,2.05
2023-01-03T03:53:29.264Z,2.47
2023-01-03T03:56:04.181Z,1.98
2023-01-03T03:58:36.901Z,1.80
2023-01-03T04:01:04.204Z,3.03
2023-01-03T04:03:31.847Z,3.08
2023-01-03T04:06:09.567Z,3.75
2023-01-03T04:08:36.488Z,4.15
2023-01-03T04:11:06.517Z,8.50
2023-01-03T04:13:33.913Z,4.30
2023-01-03T04:16:01.428Z,5.85
2023-01-03T04:18:28.525Z,2.10
2023-01-03T04:20:55.879Z,2.47
2023-01-03T04:23:22.632Z,3.05
2023-01-03T04:25:49.540Z,4.03
2023-01-03T04:28:18.005Z,2.13
2023-01-03T04:30:44.847Z,3.67
2023-01-03T04:33:11.598Z,3.47
2023-01-03T04:35:38.370Z,3.03
2023-01-03T04:38:05.753Z,2.40
2023-01-03T04:40:34.995Z,2.58
2023-01-03T04:43:20.618Z,4.43
2023-01-03T04:45:51.120Z,4.38
2023-01-03T04:48:18.320Z,3.80
2023-01-03T04:50:56.308Z,4.45
2023-01-03T04:53:23.939Z,3.20
2023-01-03T04:55:52.174Z,2.83
2023-01-03T04:58:19.303Z,3.05
2023-01-03T05:00:46.742Z,2.92
2023-01-03T05:03:13.811Z,3.10
2023-01-03T05:05:40.783Z,3.65
2023-01-03T05:08:10.110Z,2.03
2023-01-03T05:10:40.358Z,3.72
2023-01-03T05:13:07.823Z,3.45
2023-01-03T05:15:36.912Z,4.70
2023-01-03T05:18:04.580Z,2.13
2023-01-03T05:20:49.763Z,3.75
2023-01-03T05:23:36.352Z,4.88
2023-01-03T05:26:06.990Z,2.97
2023-01-03T05:28:34.114Z,4.47
2023-01-03T05:31:01.137Z,2.63
2023-01-03T05:33:28.381Z,1.83
2023-01-03T05:35:55.226Z,6.00
2023-01-03T05:38:24.192Z,2.17
2023-01-03T05:40:51.305Z,3.55
2023-01-03T05:43:18.270Z,4.43
2023-01-03T05:45:50.666Z,4.68
2023-01-03T05:48:17.993Z,5.13
2023-01-03T05:50:45.632Z,5.55
2023-01-03T05:53:12.778Z,5.45
2023-01-03T05:55:40.116Z,6.55
2023-01-03T05:58:07.651Z,6.53
2023-01-03T06:00:34.898Z,12.88
2023-01-03T06:03:03.387Z,13.32
2023-01-03T06:05:30.483Z,11.90
2023-01-03T06:08:01.087Z,13.15
2023-01-03T06:10:29.196Z,11.45
2023-01-03T06:12:56.233Z,11.23
2023-01-03T06:15:23.083Z,10.00
2023-01-03T06:17:58.369Z,8.40
2023-01-03T06:20:26.653Z,8.65
2023-01-03T06:22:54.436Z,7.00
2023-01-03T06:25:22.596Z,9.48
2023-01-03T06:27:49.815Z,6.80
2023-01-03T06:30:16.630Z,6.00
2023-01-03T06:32:44.808Z,5.07
2023-01-03T06:35:12.217Z,6.13
2023-01-03T06:37:39.345Z,7.95
2023-01-03T06:40:07.695Z,6.90
2023-01-03T06:42:42.810Z,2.70
2023-01-03T06:45:30.682Z,5.10
2023-01-03T06:48:16.067Z,2.53
2023-01-03T06:51:02.184Z,2.95
2023-01-03T06:53:36.914Z,3.08
2023-01-03T06:56:04.357Z,5.80
2023-01-03T06:58:31.336Z,5.70
2023-01-03T07:01:00.035Z,2.72
2023-01-03T07:03:27.233Z,3.38
2023-01-03T07:05:53.985Z,5.20
2023-01-03T07:08:20.717Z,3.47
2023-01-03T07:10:47.447Z,5.75
2023-01-03T07:13:32.824Z,8.40
2023-01-03T07:15:59.862Z,9.38
2023-01-03T07:18:27.001Z,11.15
2023-01-03T07:20:54.685Z,10.90
2023-01-03T07:23:21.544Z,10.73
2023-01-03T07:25:49.120Z,7.90
2023-01-03T07:28:17.131Z,12.85
2023-01-03T07:30:46.782Z,8.38
2023-01-03T07:33:16.892Z,7.75
2023-01-03T07:35:44.840Z,7.30
2023-01-03T07:38:13.413Z,6.35
2023-01-03T07:40:40.439Z,4.22
2023-01-03T07:43:25.883Z,4.90
2023-01-03T07:45:52.667Z,7.85
2023-01-03T07:48:20.327Z,7.85
2023-01-03T07:50:47.668Z,3.53
2023-01-03T07:53:17.267Z,3.88
2023-01-03T07:55:45.621Z,3.90
2023-01-03T07:58:13.026Z,4.53
2023-01-03T08:00:40.528Z,3.88
2023-01-03T08:03:11.138Z,4.03
2023-01-03T08:05:38.757Z,5.07
2023-01-03T08:08:06.901Z,7.28
2023-01-03T08:10:52.233Z,4.35
2023-01-03T08:13:19.560Z,7.10
2023-01-03T08:15:56.628Z,7.00
2023-01-03T08:18:26.020Z,6.63
2023-01-03T08:20:55.559Z,6.00
2023-01-03T08:23:23.990Z,8.77
2023-01-03T08:25:51.048Z,6.63
2023-01-03T08:28:19.043Z,7.47
2023-01-03T08:30:50.024Z,7.75
2023-01-03T08:33:18.125Z,8.00
2023-01-03T08:35:57.744Z,8.20
2023-01-03T08:38:29.611Z,7.40
2023-01-03T08:40:58.566Z,9.35
2023-01-03T08:43:25.491Z,9.50
2023-01-03T08:45:52.375Z,10.40
2023-01-03T08:48:20.253Z,8.57
2023-01-03T08:50:47.120Z,10.35
2023-01-03T08:53:14.714Z,12.23
2023-01-03T08:55:41.569Z,12.30
2023-01-03T08:58:09.930Z,11.05
2023-01-03T09:00:37.611Z,15.18
2023-01-03T09:03:04.681Z,18.20
2023-01-03T09:05:33.810Z,14.82
2023-01-03T09:08:03.469Z,18.42
2023-01-03T09:10:30.522Z,13.95
2023-01-03T09:12:58.002Z,18.98
2023-01-03T09:15:24.788Z,14.52
2023-01-03T09:17:51.614Z,17.67
2023-01-03T09:20:19.733Z,17.58
2023-01-03T09:22:48.736Z,16.35
2023-01-03T09:25:16.151Z,21.88
2023-01-03T09:27:46.172Z,19.42
2023-01-03T09:30:14.011Z,11.80
2023-01-03T09:32:41.144Z,10.48
2023-01-03T09:35:08.959Z,8.57
2023-01-03T09:37:36.585Z,12.80
2023-01-03T09:40:04.580Z,9.63
2023-01-03T09:42:49.908Z,14.93
2023-01-03T09:45:22.307Z,11.90
2023-01-03T09:47:49.631Z,12.18
2023-01-03T09:50:35.008Z,10.73
2023-01-03T09:53:25.570Z,11.40
2023-01-03T09:56:26.841Z,13.48
2023-01-03T09:59:16.225Z,10.88
2023-01-03T10:02:20.805Z,10.38
2023-01-03T10:05:21.496Z,8.35
2023-01-03T10:08:05.820Z,5.07
2023-01-03T10:11:07.285Z,5.03
2023-01-03T10:13:48.548Z,6.28
2023-01-03T10:17:00.573Z,7.82
2023-01-03T10:19:50.298Z,5.80
2023-01-03T10:22:20.518Z,6.38
2023-01-03T10:25:23.029Z,5.85
2023-01-03T10:27:52.540Z,5.38
2023-01-03T10:30:26.360Z,5.82
2023-01-03T10:33:25.252Z,6.55
2023-01-03T10:35:52.743Z,7.40
2023-01-03T10:38:22.575Z,6.18
2023-01-03T10:40:54.912Z,7.00
2023-01-03T10:43:44.210Z,5.72
2023-01-03T10:46:21.913Z,6.93
2023-01-03T10:52:10.710Z,7.32
2023-01-03T10:54:50.946Z,5.70
2023-01-03T10:58:05.217Z,7.80
2023-01-03T11:00:37.502Z,9.55
2023-01-03T11:03:14.921Z,8.13
2023-01-03T11:05:44.976Z,4.80
2023-01-03T11:08:22.557Z,7.05
2023-01-03T11:11:14.262Z,7.75
2023-01-03T11:13:42.635Z,8.02
2023-01-03T11:16:18.185Z,13.00
2023-01-03T11:18:59.906Z,7.25
2023-01-03T11:21:49.014Z,4.97
2023-01-03T11:24:57.247Z,6.72
2023-01-03T11:28:02.009Z,6.57
2023-01-03T11:30:43.226Z,7.15
2023-01-03T11:33:42.947Z,8.65
2023-01-03T11:36:33.952Z,5.75
2023-01-03T11:39:26.390Z,5.70
2023-01-03T11:42:27.842Z,5.75
2023-01-03T11:45:33.079Z,6.32
2023-01-03T11:48:17.004Z,6.57
2023-01-03T11:51:11.374Z,6.00
2023-01-03T11:53:43.792Z,10.82
2023-01-03T11:56:30.343Z,5.72
2023-01-03T11:59:39.878Z,5.30
2023-01-03T12:02:37.643Z,5.30
2023-01-03T12:08:45.347Z,6.32
2023-01-03T12:11:44.910Z,6.15
2023-01-03T12:14:22.282Z,9.32
2023-01-03T12:17:01.375Z,6.13
2023-01-03T12:19:38.570Z,7.95
2023-01-03T12:22:14.523Z,5.60
2023-01-03T12:25:00.847Z,7.18
2023-01-03T12:27:36.736Z,8.82
2023-01-03T12:30:08.114Z,8.70
2023-01-03T12:32:45.330Z,9.68
2023-01-03T12:35:38.137Z,6.55
2023-01-03T12:38:06.541Z,7.78
2023-01-03T12:40:49.505Z,8.38
2023-01-03T12:43:40.413Z,5.80
2023-01-03T12:46:13.622Z,8.50
2023-01-03T12:49:15.259Z,7.57
2023-01-03T12:51:43.400Z,4.10
2023-01-03T12:54:42.712Z,5.57
2023-01-03T12:57:38.892Z,10.05
2023-01-03T13:01:02.707Z,6.68
2023-01-03T13:03:41.678Z,6.95
2023-01-03T13:06:21.936Z,5.28
2023-01-03T13:08:52.161Z,7.30
2023-01-03T13:11:23.074Z,6.78
2023-01-03T13:13:55.300Z,8.82
2023-01-03T13:16:55.423Z,7.38
2023-01-03T13:19:22.067Z,10.00
2023-01-03T13:22:03.267Z,10.57
2023-01-03T13:24:53.232Z,7.10
2023-01-03T13:27:33.737Z,6.55
2023-01-03T13:30:00.751Z,6.57
2023-01-03T13:32:36.307Z,6.75
2023-01-03T13:35:30.498Z,12.07
2023-01-03T13:38:11.765Z,7.45
2023-01-03T13:41:15.892Z,10.65
2023-01-03T13:43:37.753Z,9.27
2023-01-03T13:46:25.331Z,6.72
2023-01-03T13:48:55.046Z,7.90
2023-01-03T13:51:27.904Z,6.03
2023-01-03T13:54:07.088Z,6.25
2023-01-03T13:56:58.051Z,5.85
2023-01-03T13:59:43.324Z,4.72
2023-01-03T14:02:49.371Z,4.90
2023-01-03T14:05:31.491Z,6.68
2023-01-03T14:08:31.773Z,6.57
2023-01-03T14:11:49.511Z,9.77
2023-01-03T14:14:18.459Z,5.97
2023-01-03T14:16:51.445Z,7.30
2023-01-03T14:19:35.276Z,13.05
2023-01-03T14:22:31.378Z,7.67
2023-01-03T14:24:59.610Z,7.93
2023-01-03T14:27:32.304Z,9.45
2023-01-03T14:29:59.623Z,4.47
2023-01-03T14:32:33.950Z,5.40
2023-01-03T14:35:02.223Z,9.05
2023-01-03T14:37:31.521Z,10.00
2023-01-03T14:40:01.993Z,5.75
2023-01-03T14:42:29.281Z,5.30
2023-01-03T14:44:57.393Z,6.15
2023-01-03T14:47:34.810Z,5.07
2023-01-03T14:50:03.275Z,9.68
2023-01-03T14:52:34.759Z,8.38
2023-01-03T14:55:08.265Z,5.22
2023-01-03T14:57:39.400Z,5.77
2023-01-03T15:00:08.504Z,7.82
2023-01-03T15:02:39.293Z,6.03
2023-01-03T15:05:21.961Z,7.15
2023-01-03T15:07:49.306Z,7.78
2023-01-03T15:10:32.014Z,4.75
2023-01-03T15:13:04.655Z,6.03
2023-01-03T15:15:40.386Z,9.02
2023-01-03T15:18:09.737Z,4.10
2023-01-03T15:20:39.762Z,5.18
2023-01-03T15:23:06.811Z,5.55
2023-01-03T15:25:37.170Z,10.10
2023-01-03T15:28:38.294Z,7.57
2023-01-03T15:31:35.048Z,8.70
2023-01-03T15:34:20.402Z,6.55
2023-01-03T15:37:22.386Z,11.38
2023-01-03T15:40:05.686Z,7.13
2023-01-03T15:42:57.956Z,6.10
2023-01-03T15:45:34.584Z,6.75
2023-01-03T15:48:01.965Z,10.35
2023-01-03T15:50:40.685Z,9.77
2023-01-03T15:53:17.564Z,7.40
2023-01-03T15:55:45.250Z,8.70
2023-01-03T15:58:11.877Z,8.55
2023-01-03T16:00:38.662Z,10.52
2023-01-03T16:03:05.518Z,12.23
2023-01-03T16:05:32.329Z,7.80
2023-01-03T16:07:59.081Z,9.27
2023-01-03T16:10:25.755Z,14.32
2023-01-03T16:12:52.397Z,9.75
2023-01-03T16:15:22.179Z,9.38
2023-01-03T16:17:50.242Z,9.85
2023-01-03T16:20:18.488Z,7.70
2023-01-03T16:22:55.860Z,9.25
2023-01-03T16:25:26.984Z,13.93
2023-01-03T16:27:53.862Z,14.30
2023-01-03T16:30:21.380Z,12.93
2023-01-03T16:32:47.989Z,14.82
2023-01-03T16:35:19.690Z,15.95
2023-01-03T16:37:47.233Z,15.38
2023-01-03T16:40:19.439Z,13.43
2023-01-03T16:42:46.105Z,12.82
2023-01-03T16:45:13.543Z,12.02
2023-01-03T16:47:44.239Z,13.23
2023-01-03T16:50:18.718Z,11.85
2023-01-03T16:52:56.569Z,9.77
2023-01-03T16:55:27.445Z,8.27
2023-01-03T16:57:55.357Z,8.15
2023-01-03T17:00:31.333Z,7.22
2023-01-03T17:03:02.102Z,5.82
2023-01-03T17:05:33.736Z,5.88
2023-01-03T17:08:18.090Z,7.38
2023-01-03T17:13:25.570Z,10.90
2023-01-03T17:15:52.568Z,11.40
2023-01-03T17:18:22.093Z,8.95
2023-01-03T17:20:53.399Z,11.48
2023-01-03T17:23:20.182Z,11.70
2023-01-03T17:25:46.941Z,8.93
2023-01-03T17:28:13.809Z,20.25
2023-01-03T17:30:44.141Z,8.02
2023-01-03T17:33:15.069Z,9.95
2023-01-03T17:35:43.239Z,11.38
2023-01-03T17:38:26.079Z,16.80
2023-01-03T17:40:55.504Z,20.30
2023-01-03T17:43:25.046Z,18.40
2023-01-03T17:46:23.152Z,20.17
2023-01-03T17:49:09.330Z,20.73
2023-01-03T17:51:36.117Z,14.50
2023-01-03T17:54:03.998Z,14.52
2023-01-03T17:56:31.105Z,10.65
2023-01-03T17:58:57.744Z,10.63
2023-01-03T18:01:24.571Z,11.00
2023-01-03T18:03:55.018Z,14.05
2023-01-03T18:06:23.962Z,13.13
2023-01-03T18:08:51.833Z,13.50
2023-01-03T18:11:21.343Z,17.42
2023-01-03T18:13:49.471Z,16.00
2023-01-03T18:16:20.450Z,12.82
2023-01-03T18:18:48.341Z,16.15
2023-01-03T18:21:27.242Z,11.38
2023-01-03T18:23:57.819Z,12.15
2023-01-03T18:26:34.295Z,14.57
2023-01-03T18:29:02.473Z,11.50
2023-01-03T18:31:29.838Z,12.20
2023-01-03T18:33:57.787Z,12.52
2023-01-03T18:36:29.054Z,8.00
2023-01-03T18:39:01.432Z,8.85
2023-01-03T18:41:30.229Z,11.95
2023-01-03T18:43:57.119Z,10.35
2023-01-03T18:46:25.846Z,7.30
2023-01-03T18:48:53.273Z,9.43
2023-01-03T18:51:24.222Z,7.53
2023-01-03T18:53:54.993Z,8.07
2023-01-03T18:56:29.212Z,10.43
2023-01-03T19:01:29.483Z,8.18
2023-01-03T19:03:56.475Z,8.32
2023-01-03T19:06:34.066Z,8.52
2023-01-03T19:09:03.730Z,7.40
2023-01-03T19:11:36.779Z,10.60
2023-01-03T19:14:04.353Z,10.88
2023-01-03T19:16:34.203Z,7.57
2023-01-03T19:19:01.703Z,8.77
2023-01-03T19:21:37.068Z,9.30
2023-01-03T19:24:48.841Z,6.95
2023-01-03T19:27:18.560Z,9.32
2023-01-03T19:29:45.396Z,7.40
2023-01-03T19:32:20.399Z,8.15
2023-01-03T19:34:47.108Z,10.60
2023-01-03T19:37:17.248Z,10.07
2023-01-03T19:39:44.007Z,11.80
2023-01-03T19:42:38.102Z,7.07
2023-01-03T19:45:16.788Z,9.97
2023-01-03T19:47:43.719Z,9.43
2023-01-03T19:50:18.675Z,12.60
2023-01-03T19:52:47.109Z,17.73
2023-01-03T19:55:17.469Z,9.63
2023-01-03T19:57:46.786Z,17.23
2023-01-03T20:00:26.559Z,69.63
2023-01-03T20:02:57.013Z,67.70
2023-01-03T20:05:30.545Z,23.88
2023-01-03T20:07:57.226Z,61.83
2023-01-03T20:10:25.673Z,52.80
2023-01-03T20:12:54.447Z,38.15
2023-01-03T20:15:26.330Z,54.15
2023-01-03T20:17:53.754Z,17.33
2023-01-03T20:20:21.756Z,10.25
2023-01-03T20:23:06.764Z,12.40
2023-01-03T20:25:35.059Z,10.60
2023-01-03T20:28:02.522Z,11.80
2023-01-03T20:30:31.239Z,9.85
2023-01-03T20:32:58.991Z,10.13
2023-01-03T20:38:21.418Z,13.20
2023-01-03T20:40:48.061Z,10.00
2023-01-03T20:43:17.405Z,11.07
2023-01-03T20:45:45.877Z,15.10
2023-01-03T20:48:19.293Z,44.65
2023-01-03T20:50:49.605Z,41.53
2023-01-03T20:53:23.054Z,32.30
2023-01-03T20:55:50.749Z,19.97
2023-01-03T20:58:22.001Z,13.32
2023-01-03T21:00:50.183Z,9.82
2023-01-03T21:03:17.942Z,11.00
2023-01-03T21:05:45.170Z,13.18
2023-01-03T21:08:33.594Z,10.88
2023-01-03T21:11:00.606Z,13.05
2023-01-03T21:13:27.356Z,15.95
2023-01-03T21:15:54.112Z,13.68
2023-01-03T21:18:21.552Z,9.27
2023-01-03T21:20:48.304Z,10.43
2023-01-03T21:23:19.785Z,40.45
2023-01-03T21:25:47.608Z,46.08
2023-01-03T21:28:19.906Z,45.08
2023-01-03T21:30:46.588Z,28.35
2023-01-03T21:33:20.031Z,25.52
2023-01-03T21:35:46.757Z,18.70
2023-01-03T21:38:13.509Z,12.10
2023-01-03T21:40:40.618Z,12.30
2023-01-03T21:43:09.269Z,15.43
2023-01-03T21:45:45.828Z,14.05
2023-01-03T21:48:15.565Z,12.10
2023-01-03T21:50:44.678Z,13.45
2023-01-03T21:53:19.915Z,13.63
2023-01-03T21:55:46.941Z,13.27
2023-01-03T21:58:15.429Z,14.15
2023-01-03T22:00:43.166Z,16.02
2023-01-03T22:03:33.114Z,16.92
2023-01-03T22:06:13.494Z,14.10
2023-01-03T22:08:40.637Z,14.32
2023-01-03T22:11:08.404Z,14.10
2023-01-03T22:13:35.919Z,11.05
2023-01-03T22:16:05.362Z,11.48
2023-01-03T22:18:32.740Z,12.57
2023-01-03T22:21:05.156Z,10.98
2023-01-03T22:23:35.766Z,9.25
2023-01-03T22:26:07.217Z,11.48
2023-01-03T22:28:35.643Z,8.32
2023-01-03T22:31:09.518Z,10.50
2023-01-03T22:33:36.780Z,10.13
2023-01-03T22:36:03.799Z,14.00
2023-01-03T22:38:30.546Z,13.90
2023-01-03T22:40:57.199Z,11.27
2023-01-03T22:43:23.926Z,10.02
2023-01-03T22:45:50.590Z,13.02
2023-01-03T22:48:17.386Z,10.57
2023-01-03T22:50:44.193Z,10.80
2023-01-03T22:53:11.005Z,10.93
2023-01-03T22:55:41.693Z,9.98
2023-01-03T22:58:08.661Z,11.93
2023-01-03T23:00:35.939Z,10.73
2023-01-03T23:03:02.883Z,12.63
2023-01-03T23:05:29.678Z,17.30
2023-01-03T23:07:57.194Z,10.75
2023-01-03T23:10:24.005Z,14.35
2023-01-03T23:12:59.685Z,14.57
2023-01-03T23:15:30.011Z,14.93
2023-01-03T23:17:57.088Z,15.07
2023-01-03T23:20:25.559Z,13.88
2023-01-03T23:22:59.187Z,14.48
2023-01-03T23:27:53.053Z,10.00
2023-01-03T23:30:19.787Z,15.75
2023-01-03T23:32:46.474Z,10.70
2023-01-03T23:35:13.178Z,16.20
2023-01-03T23:37:40.648Z,11.02
2023-01-03T23:40:08.622Z,13.95
2023-01-03T23:42:36.063Z,10.50
2023-01-03T23:45:03.362Z,14.75
2023-01-03T23:47:30.048Z,12.23
2023-01-03T23:49:56.973Z,12.50
2023-01-03T23:52:23.861Z,15.20
2023-01-03T23:54:56.195Z,11.57
2023-01-03T23:57:26.782Z,9.57
2023-01-03T23:59:53.400Z,10.02
